Time;durP1;ratioP1;P1;durP2;ratioP2;P2;SDS_P1;SDS_P2;PMS_P1;PMS_P2;Temp;Humidity;BMP_temperature;BMP_pressure;BME280_temperature;BME280_humidity;BME280_pressure;Samples;Min_cycle;Max_cycle;Signal;HPM_P1;HPM_P2
2023/10/13 00:02:10;;;;;;;2.30;0.57;;;17.20;81.20;;;;;;5013766;28;20151;-77
2023/10/13 00:04:36;;;;;;;0.73;0.43;;;17.20;81.20;;;;;;5016873;28;20033;-77
2023/10/13 00:07:04;;;;;;;1.08;0.52;;;17.20;81.20;;;;;;5011442;28;20516;-76
2023/10/13 00:09:36;;;;;;;0.50;0.35;;;17.20;81.30;;;;;;5015516;28;20104;-77
2023/10/13 00:12:04;;;;;;;1.50;0.25;;;17.20;81.30;;;;;;5009840;28;20056;-76
2023/10/13 00:14:33;;;;;;;1.80;0.52;;;17.30;81.50;;;;;;5019873;28;20056;-76
2023/10/13 00:17:15;;;;;;;0.73;0.35;;;17.30;81.60;;;;;;5018678;28;20038;-77
2023/10/13 00:19:51;;;;;;;0.95;0.43;;;17.20;81.50;;;;;;4994593;28;20037;-76
2023/10/13 00:22:19;;;;;;;1.92;0.55;;;17.30;81.60;;;;;;5000990;28;20052;-76
2023/10/13 00:24:46;;;;;;;1.65;0.63;;;17.30;81.60;;;;;;5015342;28;20045;-78
2023/10/13 00:27:41;;;;;;;0.55;0.50;;;17.30;82.20;;;;;;4996553;28;20061;-77
2023/10/13 00:32:52;;;;;;;1.38;0.70;;;17.30;81.70;;;;;;5017762;28;20033;-77
2023/10/13 00:35:53;;;;;;;2.83;1.10;;;17.30;81.70;;;;;;5036000;28;20513;-77
2023/10/13 00:38:13;;;;;;;2.28;0.70;;;17.40;81.90;;;;;;5013255;28;20124;-77
2023/10/13 00:40:44;;;;;;;1.60;1.10;;;17.40;81.90;;;;;;5015503;28;20615;-77
2023/10/13 00:45:54;;;;;;;1.95;1.02;;;17.40;82.00;;;;;;5018818;28;20132;-77
2023/10/13 00:48:42;;;;;;;1.92;1.20;;;17.40;82.10;;;;;;5015303;28;20079;-77
2023/10/13 00:51:13;;;;;;;4.03;1.58;;;17.40;82.20;;;;;;5015093;28;20421;-77
2023/10/13 00:53:41;;;;;;;4.55;1.50;;;17.40;82.10;;;;;;5014547;28;20240;-78
2023/10/13 00:56:08;;;;;;;1.60;1.40;;;17.40;82.10;;;;;;5017242;28;20491;-77
2023/10/13 00:58:38;;;;;;;2.70;1.45;;;17.40;82.20;;;;;;5018319;28;20022;-77
2023/10/13 01:01:28;;;;;;;3.40;1.58;;;17.40;82.20;;;;;;5017925;28;20469;-77
2023/10/13 01:03:56;;;;;;;3.55;1.60;;;17.40;82.30;;;;;;5016259;28;20030;-77
2023/10/13 01:06:28;;;;;;;2.47;1.55;;;17.40;82.30;;;;;;5020199;28;20032;-77
2023/10/13 01:09:18;;;;;;;5.35;2.20;;;17.40;82.40;;;;;;5014525;28;20072;-77
2023/10/13 01:11:48;;;;;;;4.78;1.95;;;17.40;82.40;;;;;;5009609;28;20034;-78
2023/10/13 01:14:17;;;;;;;3.92;1.92;;;17.40;82.40;;;;;;5014028;28;20270;-77
2023/10/13 01:16:44;;;;;;;2.65;2.00;;;17.40;82.50;;;;;;5016610;28;20029;-78
2023/10/13 01:19:18;;;;;;;2.78;1.98;;;17.40;82.50;;;;;;5021771;28;20029;-79
2023/10/13 01:21:45;;;;;;;7.95;2.40;;;17.40;82.60;;;;;;5018114;28;20042;-78
2023/10/13 01:24:13;;;;;;;2.85;2.17;;;17.40;82.60;;;;;;5001849;28;20076;-79
2023/10/13 01:26:42;;;;;;;3.88;2.42;;;17.40;82.60;;;;;;5020148;28;20045;-79
2023/10/13 01:29:14;;;;;;;2.67;2.45;;;17.40;82.60;;;;;;5013182;28;20095;-78
2023/10/13 01:31:47;;;;;;;4.30;2.75;;;17.40;82.70;;;;;;5017350;28;20041;-78
2023/10/13 01:34:24;;;;;;;4.53;2.38;;;17.40;82.70;;;;;;5023300;28;20028;-78
2023/10/13 01:36:55;;;;;;;3.70;2.55;;;17.40;82.70;;;;;;5016113;28;20171;-78
2023/10/13 01:39:26;;;;;;;3.47;3.03;;;17.40;82.70;;;;;;5018014;28;20089;-78
2023/10/13 01:41:56;;;;;;;5.50;2.80;;;17.40;82.70;;;;;;5021936;28;20088;-79
2023/10/13 01:44:30;;;;;;;10.68;3.33;;;17.40;82.70;;;;;;4999026;28;20021;-78
2023/10/13 01:47:05;;;;;;;5.35;2.85;;;17.40;82.80;;;;;;5013271;28;20458;-78
2023/10/13 01:49:41;;;;;;;6.10;3.15;;;17.40;82.70;;;;;;5011630;28;20540;-79
2023/10/13 01:52:15;;;;;;;6.50;3.20;;;17.40;82.70;;;;;;4998343;28;20034;-79
2023/10/13 01:54:50;;;;;;;7.45;3.20;;;17.40;82.70;;;;;;5020679;28;20231;-78
2023/10/13 01:57:17;;;;;;;5.07;3.33;;;17.40;82.80;;;;;;5022825;28;20026;-79
2023/10/13 01:59:45;;;;;;;7.72;4.85;;;17.40;82.70;;;;;;4996111;28;20496;-79
2023/10/13 02:02:15;;;;;;;6.75;4.25;;;17.40;82.80;;;;;;5018377;28;20117;-78
2023/10/13 02:04:42;;;;;;;8.40;3.67;;;17.40;82.80;;;;;;5014768;28;20022;-79
2023/10/13 02:07:08;;;;;;;4.40;3.25;;;17.40;82.80;;;;;;5016478;28;20152;-79
2023/10/13 02:09:37;;;;;;;6.57;3.80;;;17.40;82.80;;;;;;5004583;28;20029;-78
2023/10/13 02:12:03;;;;;;;9.48;5.72;;;17.40;82.80;;;;;;5016061;28;20040;-79
2023/10/13 02:14:29;;;;;;;8.30;3.80;;;17.40;82.80;;;;;;5017092;28;20033;-78
2023/10/13 02:17:11;;;;;;;6.70;4.32;;;17.40;82.80;;;;;;5012520;28;20036;-78
2023/10/13 02:19:40;;;;;;;6.68;3.80;;;17.40;82.90;;;;;;4999415;28;20268;-77
2023/10/13 02:22:10;;;;;;;8.75;4.60;;;17.40;82.90;;;;;;5021487;28;20146;-78
2023/10/13 02:24:39;;;;;;;5.78;3.97;;;17.40;82.80;;;;;;5012497;28;20052;-77
2023/10/13 02:27:14;;;;;;;6.60;4.22;;;17.40;82.80;;;;;;5012374;28;20041;-77
2023/10/13 02:29:41;;;;;;;4.38;3.47;;;17.40;82.80;;;;;;5007511;28;20026;-77
2023/10/13 02:32:18;;;;;;;6.72;4.25;;;17.40;82.80;;;;;;5013036;28;20501;-76
2023/10/13 02:34:45;;;;;;;4.93;4.38;;;17.40;82.80;;;;;;5013638;28;20072;-77
2023/10/13 02:37:13;;;;;;;8.10;4.03;;;17.40;82.80;;;;;;5014184;28;20194;-77
2023/10/13 02:39:43;;;;;;;6.65;3.72;;;17.40;83.30;;;;;;5014731;28;20207;-76
2023/10/13 02:42:16;;;;;;;7.70;4.03;;;17.40;82.80;;;;;;5015477;28;20610;-78
2023/10/13 02:44:45;;;;;;;8.90;4.63;;;17.50;82.90;;;;;;5027993;28;20029;-77
2023/10/13 02:47:14;;;;;;;8.25;4.93;;;17.40;82.80;;;;;;5016137;28;20025;-77
2023/10/13 02:49:46;;;;;;;10.27;4.82;;;17.50;82.90;;;;;;5016490;28;20092;-77
2023/10/13 02:52:12;;;;;;;8.88;4.45;;;17.50;82.90;;;;;;5019938;28;20045;-77
2023/10/13 02:54:42;;;;;;;10.70;5.32;;;17.50;83.00;;;;;;5017179;28;20033;-78
2023/10/13 02:57:08;;;;;;;5.65;4.03;;;17.50;83.00;;;;;;5020929;28;20288;-77
2023/10/13 02:59:34;;;;;;;12.77;5.80;;;17.60;83.20;;;;;;5018105;28;20724;-77
2023/10/13 03:04:50;;;;;;;9.40;4.90;;;17.60;83.20;;;;;;5011152;28;20027;-76
2023/10/13 03:07:22;;;;;;;7.80;5.13;;;17.60;83.20;;;;;;5007605;28;20552;-76
2023/10/13 03:09:52;;;;;;;8.40;5.28;;;17.60;83.30;;;;;;5002692;28;20029;-76
2023/10/13 03:12:19;;;;;;;9.32;4.65;;;17.60;83.30;;;;;;5018526;28;20030;-76
2023/10/13 03:14:47;;;;;;;8.65;4.70;;;17.70;83.50;;;;;;5018763;28;20521;-77
2023/10/13 03:17:16;;;;;;;8.68;4.97;;;17.70;83.50;;;;;;5020829;28;20243;-76
2023/10/13 03:19:49;;;;;;;6.55;4.95;;;17.70;83.60;;;;;;5019701;28;20059;-74
2023/10/13 03:22:16;;;;;;;9.00;5.75;;;17.70;83.60;;;;;;5020160;28;21121;-75
2023/10/13 03:24:46;;;;;;;16.25;5.78;;;17.70;83.60;;;;;;5017165;28;20052;-75
2023/10/13 03:27:17;;;;;;;10.60;5.28;;;17.70;83.70;;;;;;4997982;28;20429;-74
2023/10/13 03:29:46;;;;;;;12.13;6.22;;;17.70;83.70;;;;;;4992333;28;20113;-75
2023/10/13 03:32:15;;;;;;;11.05;5.80;;;17.70;83.80;;;;;;5018108;28;20086;-75
2023/10/13 03:40:08;;;;;;;11.13;5.38;;;17.70;83.90;;;;;;5018283;28;20261;-76
2023/10/13 03:42:34;;;;;;;8.45;6.13;;;17.80;84.10;;;;;;5009145;28;20137;-76
2023/10/13 03:45:01;;;;;;;13.20;6.35;;;17.80;84.10;;;;;;5037841;28;20037;-75
2023/10/13 03:47:32;;;;;;;12.20;5.80;;;17.80;84.10;;;;;;5013393;28;20036;-76
2023/10/13 03:50:16;;;;;;;12.60;6.90;;;17.80;84.10;;;;;;5011810;28;20033;-75
2023/10/13 03:52:42;;;;;;;11.85;5.72;;;17.80;84.10;;;;;;5015999;28;20450;-76
2023/10/13 03:55:16;;;;;;;15.48;6.60;;;17.90;84.30;;;;;;5002581;28;20476;-76
2023/10/13 03:57:45;;;;;;;10.25;5.53;;;17.80;84.20;;;;;;5018860;28;20036;-76
2023/10/13 04:00:21;;;;;;;12.98;7.03;;;17.90;84.40;;;;;;5019465;28;20036;-76
2023/10/13 04:02:53;;;;;;;10.23;5.95;;;17.90;84.40;;;;;;5018921;28;20567;-76
2023/10/13 04:05:34;;;;;;;15.20;5.97;;;17.90;84.40;;;;;;5019803;28;20029;-76
2023/10/13 04:19:07;;;;;;;12.50;5.57;;;18.00;84.60;;;;;;5020470;28;20507;-77
2023/10/13 04:21:41;;;;;;;10.40;6.10;;;18.00;84.70;;;;;;5017087;28;20037;-75
2023/10/13 04:24:23;;;;;;;11.85;5.93;;;18.00;84.70;;;;;;5015658;28;20042;-75
2023/10/13 04:32:28;;;;;;;11.27;5.38;;;18.00;84.80;;;;;;5009941;28;20542;-75
2023/10/13 04:35:09;;;;;;;11.82;6.30;;;18.00;84.80;;;;;;5017175;28;20037;-76
2023/10/13 04:37:54;;;;;;;10.57;5.85;;;18.00;84.80;;;;;;5014171;28;20037;-76
2023/10/13 04:40:35;;;;;;;15.15;7.07;;;18.00;84.90;;;;;;4998289;28;20037;-75
2023/10/13 04:43:55;;;;;;;10.75;5.75;;;18.00;84.90;;;;;;5006662;28;20053;-75
2023/10/13 04:45:53;;;;;;;10.90;6.35;;;18.00;84.90;;;;;;5012426;28;20046;-76
2023/10/13 04:51:21;;;;;;;19.25;7.13;;;18.00;85.00;;;;;;5012917;28;20033;-75
2023/10/13 04:54:02;;;;;;;15.25;6.38;;;18.00;85.10;;;;;;5021214;28;20025;-75
2023/10/13 04:59:35;;;;;;;11.23;6.30;;;18.10;85.20;;;;;;5018573;28;20025;-76
2023/10/13 05:46:48;;;;;;;10.73;4.70;;;18.20;86.20;;;;;;5010983;28;20582;-76
2023/10/13 06:30:00;;;;;;;12.40;4.63;;;18.50;87.10;;;;;;5012420;28;20439;-75
2023/10/13 06:32:27;;;;;;;10.40;4.07;;;18.50;87.10;;;;;;4998022;28;20045;-75
2023/10/13 06:34:57;;;;;;;12.40;4.85;;;18.50;87.10;;;;;;5017666;28;20040;-75
2023/10/13 06:37:31;;;;;;;8.50;3.70;;;18.50;87.20;;;;;;5015147;28;20029;-75
2023/10/13 06:40:07;;;;;;;8.93;4.60;;;18.50;87.20;;;;;;5016910;28;20052;-75
2023/10/13 06:42:42;;;;;;;11.82;4.05;;;18.50;87.10;;;;;;5015464;28;20057;-75
2023/10/13 06:45:09;;;;;;;11.35;4.18;;;18.50;87.10;;;;;;5012414;28;20049;-76
2023/10/13 06:47:42;;;;;;;11.07;3.92;;;18.50;87.10;;;;;;5009687;28;20231;-75
2023/10/13 06:50:15;;;;;;;8.40;4.43;;;18.50;87.10;;;;;;5013467;28;20041;-75
2023/10/13 06:52:43;;;;;;;11.38;5.05;;;18.60;87.20;;;;;;5014527;28;20120;-75
2023/10/13 06:55:27;;;;;;;12.13;4.85;;;18.60;87.20;;;;;;5023615;28;20037;-76
2023/10/13 06:58:00;;;;;;;13.00;4.43;;;18.60;87.20;;;;;;5024469;28;20390;-76
2023/10/13 07:00:33;;;;;;;8.05;4.05;;;18.60;87.10;;;;;;5019663;28;20166;-77
2023/10/13 07:03:06;;;;;;;10.55;5.03;;;18.60;87.10;;;;;;5017829;28;20036;-77
2023/10/13 07:05:37;;;;;;;7.90;3.28;;;18.60;87.10;;;;;;5015372;28;20480;-76
2023/10/13 07:08:06;;;;;;;9.70;4.55;;;18.70;87.20;;;;;;5036567;28;20329;-76
2023/10/13 07:10:44;;;;;;;8.18;3.80;;;18.70;87.20;;;;;;5027992;28;20032;-76
2023/10/13 07:13:13;;;;;;;5.80;3.55;;;18.70;87.10;;;;;;5013904;28;20387;-75
2023/10/13 07:15:45;;;;;;;6.57;2.92;;;18.80;87.10;;;;;;5044907;28;20033;-76
2023/10/13 07:18:17;;;;;;;8.48;3.85;;;18.80;87.00;;;;;;5023190;28;20202;-76
2023/10/13 07:20:43;;;;;;;14.25;3.92;;;18.80;86.90;;;;;;5007902;28;20394;-75
2023/10/13 07:23:24;;;;;;;9.55;3.63;;;18.90;86.90;;;;;;5012737;28;20041;-76
2023/10/13 07:26:02;;;;;;;11.27;4.10;;;18.90;86.80;;;;;;5011255;28;20164;-76
2023/10/13 07:28:36;;;;;;;11.00;3.20;;;18.90;86.70;;;;;;5007033;28;20053;-76
2023/10/13 07:33:31;;;;;;;9.60;3.30;;;19.00;86.60;;;;;;5016622;28;20156;-76
2023/10/13 07:36:11;;;;;;;8.63;3.45;;;19.10;86.70;;;;;;5005932;28;20048;-76
2023/10/13 07:38:42;;;;;;;6.72;3.30;;;19.10;86.60;;;;;;4989827;28;20056;-77
2023/10/13 07:41:08;;;;;;;10.48;3.95;;;19.10;86.40;;;;;;5042156;28;20833;-76
2023/10/13 07:43:39;;;;;;;7.90;3.70;;;19.20;86.40;;;;;;5011796;28;20655;-77
2023/10/13 07:46:12;;;;;;;7.40;3.83;;;19.20;86.20;;;;;;5016211;28;20041;-76
2023/10/13 07:48:40;;;;;;;8.13;3.30;;;19.30;86.20;;;;;;5026122;28;20021;-77
2023/10/13 07:51:15;;;;;;;7.88;3.40;;;19.30;86.00;;;;;;5014283;28;20065;-78
2023/10/13 07:53:43;;;;;;;8.63;2.90;;;19.40;86.00;;;;;;5010003;28;20051;-78
2023/10/13 07:56:11;;;;;;;7.90;3.10;;;19.40;85.80;;;;;;5019631;28;20064;-78
2023/10/13 07:58:47;;;;;;;10.40;2.92;;;19.40;85.70;;;;;;5009509;28;20060;-77
2023/10/13 08:01:19;;;;;;;14.38;3.90;;;19.50;85.70;;;;;;5019025;28;20480;-78
2023/10/13 08:03:47;;;;;;;11.60;3.47;;;19.50;85.50;;;;;;4998724;28;20037;-78
2023/10/13 08:08:43;;;;;;;12.00;4.00;;;19.60;85.50;;;;;;5020787;28;20037;-76
2023/10/13 08:13:54;;;;;;;14.55;3.70;;;19.70;85.40;;;;;;5018187;28;20034;-77
2023/10/13 08:16:22;;;;;;;17.13;4.15;;;19.70;85.20;;;;;;5008103;28;20339;-78
2023/10/13 08:18:52;;;;;;;12.77;3.38;;;19.70;85.10;;;;;;5020192;28;20108;-77
2023/10/13 08:21:24;;;;;;;14.45;4.35;;;19.80;85.10;;;;;;5013021;28;20046;-77
2023/10/13 08:26:29;;;;;;;9.95;3.42;;;19.80;84.80;;;;;;5010335;28;20040;-77
2023/10/13 08:32:05;;;;;;;8.52;2.88;;;19.90;84.60;;;;;;5020173;28;20557;-77
2023/10/13 08:37:28;;;;;;;9.82;3.20;;;19.90;84.30;;;;;;5010328;28;20037;-78
2023/10/13 08:48:07;;;;;;;9.37;3.80;;;19.90;84.00;;;;;;5020275;28;20022;-78
2023/10/13 08:53:31;;;;;;;9.98;3.13;;;20.00;84.00;;;;;;5023513;28;19933;-78
2023/10/13 08:56:18;;;;;;;6.35;2.70;;;20.10;83.90;;;;;;5017647;28;20467;-78
2023/10/13 09:04:59;;;;;;;10.07;2.80;;;20.10;83.60;;;;;;5026811;28;20045;-78
2023/10/13 09:09:41;;;;;;;8.88;3.70;;;20.10;83.40;;;;;;5024428;28;20033;-77
2023/10/13 09:12:14;;;;;;;8.63;3.10;;;20.10;83.30;;;;;;5025160;28;20370;-77
2023/10/13 09:14:45;;;;;;;6.97;2.65;;;20.10;83.20;;;;;;5023618;28;20082;-77
2023/10/13 09:17:34;;;;;;;8.23;2.42;;;20.10;83.20;;;;;;5024821;28;20025;-77
2023/10/13 09:20:19;;;;;;;7.43;2.20;;;20.10;83.20;;;;;;5028769;28;20033;-79
2023/10/13 09:22:54;;;;;;;6.30;1.90;;;20.10;83.10;;;;;;5010870;28;20257;-77
2023/10/13 09:25:23;;;;;;;9.63;2.30;;;20.00;82.90;;;;;;5020688;28;20496;-78
2023/10/13 09:27:53;;;;;;;8.98;3.25;;;20.00;82.80;;;;;;5015876;28;20036;-78
2023/10/13 09:30:20;;;;;;;7.07;2.22;;;20.10;83.00;;;;;;5012900;28;20091;-79
2023/10/13 09:33:01;;;;;;;7.53;2.50;;;20.10;82.90;;;;;;5025110;28;20041;-77
2023/10/13 09:35:31;;;;;;;10.05;2.42;;;20.10;82.80;;;;;;5029139;28;20277;-78
2023/10/13 09:37:59;;;;;;;6.15;1.70;;;20.10;83.30;;;;;;5019849;28;20067;-78
2023/10/13 09:40:25;;;;;;;7.47;1.70;;;20.10;82.70;;;;;;5020443;28;20042;-78
2023/10/13 09:42:55;;;;;;;9.63;3.05;;;20.10;82.60;;;;;;5028432;28;20155;-78
2023/10/13 09:45:43;;;;;;;6.30;1.75;;;20.20;82.70;;;;;;5012319;28;20037;-77
2023/10/13 09:48:21;;;;;;;5.00;1.38;;;20.20;82.70;;;;;;5013102;28;20041;-78
2023/10/13 09:50:49;;;;;;;5.38;2.47;;;20.20;82.60;;;;;;5006883;28;20303;-77
2023/10/13 09:53:18;;;;;;;8.95;2.15;;;20.20;82.60;;;;;;5019613;28;20487;-78
2023/10/13 09:55:49;;;;;;;6.82;2.42;;;20.30;82.70;;;;;;5020460;28;20707;-78
2023/10/13 09:58:17;;;;;;;5.15;1.80;;;20.40;82.70;;;;;;5018791;28;20025;-78
2023/10/13 10:01:10;;;;;;;6.60;2.05;;;20.50;82.60;;;;;;5019278;28;20033;-77
2023/10/13 10:04:07;;;;;;;5.75;2.85;;;20.70;82.50;;;;;;5014075;28;20049;-79
2023/10/13 10:06:39;;;;;;;9.05;2.25;;;20.80;82.20;;;;;;5015134;28;20634;-79
2023/10/13 10:09:13;;;;;;;4.53;1.80;;;21.00;82.30;;;;;;5004521;28;20305;-80
2023/10/13 10:12:00;;;;;;;7.53;3.22;;;21.00;82.00;;;;;;5014783;28;20033;-79
2023/10/13 10:15:06;;;;;;;6.45;1.80;;;21.20;82.10;;;;;;5016103;28;20033;-78
2023/10/13 10:17:42;;;;;;;5.53;1.80;;;21.20;81.80;;;;;;5043119;28;20053;-80
2023/10/13 10:20:19;;;;;;;6.22;2.08;;;21.20;81.70;;;;;;5015529;28;20162;-79
2023/10/13 10:22:59;;;;;;;6.53;3.28;;;21.30;81.80;;;;;;5009939;28;20033;-79
2023/10/13 10:25:35;;;;;;;4.03;1.17;;;21.20;81.50;;;;;;5018947;28;20061;-77
2023/10/13 10:28:06;;;;;;;3.40;1.00;;;21.20;81.40;;;;;;5012015;28;20258;-77
2023/10/13 10:30:41;;;;;;;5.70;1.33;;;21.20;81.40;;;;;;5012354;28;20030;-78
2023/10/13 10:33:28;;;;;;;6.65;1.40;;;21.20;81.40;;;;;;5014428;28;20038;-78
2023/10/13 10:36:01;;;;;;;5.03;1.55;;;21.20;81.40;;;;;;5014079;28;20397;-78
2023/10/13 10:40:58;;;;;;;5.40;1.25;;;21.30;81.40;;;;;;5022653;28;20124;-78
2023/10/13 10:43:42;;;;;;;3.45;1.25;;;21.30;81.30;;;;;;5013983;28;20165;-77
2023/10/13 10:46:12;;;;;;;3.40;1.05;;;21.40;81.30;;;;;;5020170;28;20039;-77
2023/10/13 10:48:42;;;;;;;5.63;1.45;;;21.40;81.20;;;;;;5034779;28;20048;-78
2023/10/13 10:51:21;;;;;;;6.20;1.50;;;21.50;81.20;;;;;;5019324;28;20053;-77
2023/10/13 10:53:52;;;;;;;5.45;1.38;;;21.60;81.20;;;;;;5016036;28;20072;-78
2023/10/13 10:56:36;;;;;;;5.25;1.13;;;21.60;80.90;;;;;;5017740;28;20041;-78
2023/10/13 10:59:05;;;;;;;6.85;1.42;;;21.80;80.90;;;;;;5015876;28;20292;-79
2023/10/13 11:01:38;;;;;;;6.95;1.10;;;21.90;80.80;;;;;;5021743;28;20037;-76
2023/10/13 11:04:08;;;;;;;6.30;1.50;;;22.00;80.70;;;;;;5016712;28;20066;-77
2023/10/13 11:06:45;;;;;;;4.10;1.02;;;22.10;80.50;;;;;;5006868;28;20029;-78
2023/10/13 11:10:06;;;;;;;7.15;1.58;;;22.10;80.30;;;;;;5019128;28;20041;-78
2023/10/13 11:12:43;;;;;;;5.35;1.35;;;22.20;80.30;;;;;;5019584;28;20033;-77
2023/10/13 11:15:21;;;;;;;3.42;1.10;;;22.20;80.10;;;;;;5021925;28;20446;-78
2023/10/13 11:17:54;;;;;;;3.30;0.70;;;22.30;80.10;;;;;;5017103;28;20102;-78
2023/10/13 11:20:43;;;;;;;;;;;22.30;79.90;;;;;;5016929;28;20044;-78
2023/10/13 11:23:15;;;;;;;6.95;1.35;;;22.40;80.10;;;;;;5014917;28;19920;-78
2023/10/13 11:25:44;;;;;;;5.40;1.25;;;22.40;80.00;;;;;;5010665;28;20404;-77
2023/10/13 11:28:19;;;;;;;3.33;1.02;;;22.40;79.80;;;;;;5015788;28;20069;-78
2023/10/13 11:31:10;;;;;;;4.68;1.40;;;22.50;79.80;;;;;;5029399;28;20524;-78
2023/10/13 11:33:33;;;;;;;4.20;1.30;;;22.50;79.70;;;;;;5014379;28;20064;-79
2023/10/13 11:36:03;;;;;;;5.93;1.00;;;22.60;79.60;;;;;;5017955;28;20484;-78
2023/10/13 11:38:49;;;;;;;5.25;0.95;;;22.60;79.30;;;;;;5007392;28;20053;-78
2023/10/13 11:41:16;;;;;;;3.55;0.77;;;22.70;79.10;;;;;;5019432;28;20128;-78
2023/10/13 11:51:49;;;;;;;3.78;1.17;;;23.10;78.70;;;;;;5009228;28;20096;-78
2023/10/13 11:54:21;;;;;;;4.70;1.30;;;23.20;78.50;;;;;;5012223;28;20480;-78
2023/10/13 11:56:48;;;;;;;6.07;2.27;;;23.20;78.30;;;;;;5034614;28;20456;-77
2023/10/13 11:59:17;;;;;;;5.55;1.30;;;23.30;78.30;;;;;;5015367;28;20041;-78
2023/10/13 12:04:51;;;;;;;8.40;2.38;;;23.30;77.80;;;;;;5017562;28;20321;-77
2023/10/13 12:07:23;;;;;;;9.80;2.55;;;23.30;77.70;;;;;;5007730;28;20037;-79
2023/10/13 12:12:40;;;;;;;5.57;1.92;;;23.30;77.40;;;;;;5019663;28;20022;-78
2023/10/13 12:15:09;;;;;;;4.47;1.67;;;23.30;77.20;;;;;;5016270;28;20373;-78
2023/10/13 12:17:36;;;;;;;4.63;1.38;;;23.20;77.10;;;;;;5019003;28;20033;-78
2023/10/13 12:20:10;;;;;;;3.85;1.48;;;23.20;77.10;;;;;;5019367;28;20610;-77
2023/10/13 12:22:42;;;;;;;5.78;2.28;;;23.20;77.10;;;;;;5013752;28;20049;-78
2023/10/13 12:27:57;;;;;;;4.45;1.10;;;23.10;76.90;;;;;;5017027;28;20040;-78
2023/10/13 12:30:48;;;;;;;5.15;1.25;;;23.10;76.90;;;;;;5018348;28;20025;-79
2023/10/13 12:33:23;;;;;;;3.05;1.33;;;23.20;77.00;;;;;;5003013;28;20038;-79
2023/10/13 12:36:09;;;;;;;5.57;1.70;;;23.20;76.90;;;;;;5014521;28;20041;-80
2023/10/13 12:52:16;;;;;;;6.47;1.60;;;23.40;76.50;;;;;;5014348;28;20363;-78
2023/10/13 12:54:46;;;;;;;;;;;23.40;76.30;;;;;;5012343;28;20065;-78
2023/10/13 12:57:15;;;;;;;5.10;1.17;;;23.40;76.30;;;;;;5040186;28;21761;-78
2023/10/13 12:59:42;;;;;;;3.22;1.33;;;23.30;76.20;;;;;;5016042;28;20030;-78
2023/10/13 13:02:14;;;;;;;4.95;1.10;;;23.30;76.20;;;;;;5022090;28;20324;-78
2023/10/13 13:04:44;;;;;;;5.85;1.17;;;23.20;76.00;;;;;;5011051;28;20618;-78
2023/10/13 13:07:13;;;;;;;4.22;0.85;;;23.20;76.00;;;;;;5020039;28;20486;-77
2023/10/13 13:09:43;;;;;;;3.95;0.90;;;23.10;75.90;;;;;;5012403;28;20536;-77
2023/10/13 13:12:12;;;;;;;5.68;1.40;;;23.00;75.90;;;;;;5026693;28;20033;-78
2023/10/13 13:14:43;;;;;;;6.15;1.60;;;23.00;76.00;;;;;;5007929;28;20448;-79
2023/10/13 13:17:09;;;;;;;5.82;1.30;;;22.90;75.90;;;;;;5018816;28;20045;-78
2023/10/13 13:19:38;;;;;;;3.55;0.85;;;22.80;75.90;;;;;;5022737;28;20029;-78
2023/10/13 13:22:12;;;;;;;5.15;1.20;;;22.80;76.10;;;;;;5014190;28;20056;-78
2023/10/13 13:24:46;;;;;;;3.35;1.65;;;22.70;76.10;;;;;;5023248;28;20372;-78
2023/10/13 13:27:13;;;;;;;4.88;1.10;;;22.70;76.20;;;;;;5018638;28;20590;-77
2023/10/13 13:29:45;;;;;;;5.13;1.40;;;22.80;76.50;;;;;;5015547;28;20350;-78
2023/10/13 13:32:45;;;;;;;4.03;1.27;;;22.80;76.40;;;;;;5016142;28;20125;-78
2023/10/13 13:35:05;;;;;;;4.13;1.20;;;22.80;76.40;;;;;;5018971;28;20045;-78
2023/10/13 13:37:34;;;;;;;3.38;1.08;;;22.80;76.40;;;;;;5021393;28;20029;-77
2023/10/13 13:40:17;;;;;;;3.50;0.90;;;22.80;76.40;;;;;;5016978;28;20950;-77
2023/10/13 13:42:44;;;;;;;4.15;1.13;;;22.70;76.30;;;;;;5013386;28;20043;-77
2023/10/13 13:45:27;;;;;;;4.65;1.85;;;22.70;76.30;;;;;;5013239;28;20033;-77
2023/10/13 13:47:54;;;;;;;5.10;1.13;;;22.70;76.40;;;;;;5020695;28;20443;-77
2023/10/13 13:50:24;;;;;;;3.17;0.90;;;22.70;76.50;;;;;;5018719;28;20028;-77
2023/10/13 13:52:52;;;;;;;2.90;1.30;;;22.60;76.40;;;;;;5014999;28;20042;-76
2023/10/13 13:55:20;;;;;;;3.85;1.13;;;22.50;76.30;;;;;;5022341;28;20098;-77
2023/10/13 13:57:46;;;;;;;4.57;1.60;;;22.50;76.50;;;;;;5017010;28;20033;-77
2023/10/13 14:00:16;;;;;;;7.97;2.45;;;22.40;76.40;;;;;;5022597;28;20098;-77
2023/10/13 14:02:47;;;;;;;4.47;1.13;;;22.30;76.40;;;;;;5026476;28;20043;-77
2023/10/13 14:05:18;;;;;;;4.82;0.85;;;22.20;76.50;;;;;;5022464;28;20032;-77
2023/10/13 14:07:48;;;;;;;4.13;1.30;;;22.10;76.60;;;;;;5015730;28;20033;-77
2023/10/13 14:10:54;;;;;;;3.00;1.20;;;22.10;76.80;;;;;;5014340;28;20174;-77
2023/10/13 14:13:22;;;;;;;2.10;1.17;;;22.00;76.90;;;;;;5017253;28;20370;-77
2023/10/13 14:15:48;;;;;;;1.45;0.70;;;21.90;76.90;;;;;;5013756;28;20029;-76
2023/10/13 14:18:17;;;;;;;4.53;1.20;;;21.90;77.00;;;;;;4999023;28;20043;-77
2023/10/13 14:20:43;;;;;;;2.92;1.00;;;21.90;76.90;;;;;;5015277;28;20558;-77
2023/10/13 14:23:11;;;;;;;3.42;1.08;;;21.90;77.00;;;;;;5011447;28;20041;-77
2023/10/13 14:25:44;;;;;;;3.33;0.95;;;21.90;77.00;;;;;;5016446;28;20034;-77
2023/10/13 14:28:11;;;;;;;;;;;21.80;76.90;;;;;;5014485;28;20571;-77
2023/10/13 14:30:40;;;;;;;3.65;1.73;;;21.80;77.00;;;;;;5014547;28;19914;-77
2023/10/13 14:33:10;;;;;;;3.03;1.02;;;21.80;77.10;;;;;;5016710;28;20045;-76
2023/10/13 14:35:37;;;;;;;2.70;0.88;;;21.70;77.00;;;;;;5011231;28;20037;-77
2023/10/13 14:38:03;;;;;;;4.18;0.98;;;21.70;77.10;;;;;;5012437;28;20459;-77
2023/10/13 14:40:30;;;;;;;2.20;0.70;;;21.60;77.10;;;;;;5016650;28;20045;-77
2023/10/13 14:42:56;;;;;;;3.55;0.95;;;21.60;77.20;;;;;;5026167;28;20040;-77
2023/10/13 14:45:22;;;;;;;2.63;0.80;;;21.60;77.20;;;;;;5011339;28;20504;-77
2023/10/13 14:47:48;;;;;;;4.68;0.77;;;21.60;77.30;;;;;;5059733;28;20429;-77
2023/10/13 14:50:19;;;;;;;3.40;0.77;;;21.60;77.30;;;;;;5029279;28;20158;-77
2023/10/13 14:52:46;;;;;;;1.67;0.70;;;21.50;77.10;;;;;;5023777;28;20030;-77
2023/10/13 14:55:18;;;;;;;2.03;0.68;;;21.40;76.90;;;;;;5001283;28;20043;-78
2023/10/13 14:57:47;;;;;;;3.47;1.55;;;21.40;77.00;;;;;;5016717;28;20396;-76
2023/10/13 15:00:14;;;;;;;3.80;0.90;;;21.30;76.90;;;;;;5051945;28;20030;-77
2023/10/13 15:02:44;;;;;;;2.17;0.65;;;21.30;77.00;;;;;;5025560;28;20418;-77
2023/10/13 15:05:16;;;;;;;2.70;0.75;;;21.20;77.10;;;;;;5018606;28;20033;-76
2023/10/13 15:07:44;;;;;;;4.65;1.30;;;21.10;77.00;;;;;;5020537;28;20031;-75
2023/10/13 15:10:14;;;;;;;4.00;1.20;;;21.00;77.00;;;;;;5025399;28;20033;-76
2023/10/13 15:12:44;;;;;;;4.65;1.52;;;20.90;77.00;;;;;;5016676;28;20043;-77
2023/10/13 15:15:13;;;;;;;1.23;0.85;;;20.90;77.20;;;;;;5012004;28;20531;-77
2023/10/13 15:17:48;;;;;;;7.10;1.25;;;20.80;77.20;;;;;;5014696;28;20259;-78
2023/10/13 15:20:16;;;;;;;3.25;0.93;;;20.70;77.20;;;;;;5019614;28;20033;-78
2023/10/13 15:22:49;;;;;;;3.78;0.73;;;20.60;77.20;;;;;;5018023;28;20071;-75
2023/10/13 15:25:28;;;;;;;3.30;1.50;;;20.60;77.40;;;;;;5024157;28;20093;-78
2023/10/13 15:28:04;;;;;;;1.92;0.63;;;20.50;77.40;;;;;;5015250;28;20552;-78
2023/10/13 15:30:44;;;;;;;4.28;0.90;;;20.50;77.50;;;;;;5020059;28;20044;-78
2023/10/13 15:33:11;;;;;;;2.63;0.88;;;20.40;77.40;;;;;;5011825;28;20034;-78
2023/10/13 15:35:45;;;;;;;1.92;0.70;;;20.30;77.20;;;;;;5018497;28;20065;-77
2023/10/13 15:38:14;;;;;;;1.85;0.50;;;20.30;77.20;;;;;;5017147;28;20115;-78
2023/10/13 15:40:44;;;;;;;1.77;0.60;;;20.20;77.10;;;;;;5012538;28;20044;-78
2023/10/13 15:43:12;;;;;;;1.05;0.30;;;20.20;77.00;;;;;;5009423;28;20381;-77
2023/10/13 15:45:42;;;;;;;1.67;0.45;;;20.10;76.90;;;;;;5021485;28;20025;-78
2023/10/13 15:48:12;;;;;;;1.05;0.30;;;20.10;76.90;;;;;;5020025;28;20534;-78
2023/10/13 15:50:41;;;;;;;2.20;0.73;;;20.00;76.80;;;;;;5015095;28;20045;-78
2023/10/13 15:53:12;;;;;;;2.28;0.57;;;19.90;76.60;;;;;;5000936;28;20029;-78
2023/10/13 15:55:38;;;;;;;1.85;0.65;;;19.80;76.40;;;;;;5011803;28;20068;-77
2023/10/13 15:58:07;;;;;;;2.70;0.63;;;19.80;76.40;;;;;;5018548;28;20496;-78
2023/10/13 16:00:35;;;;;;;2.05;0.70;;;19.70;76.20;;;;;;5012787;28;20045;-77
2023/10/13 16:03:10;;;;;;;2.03;0.50;;;19.60;76.20;;;;;;5001944;28;20049;-77
2023/10/13 16:05:42;;;;;;;2.05;0.60;;;19.50;76.20;;;;;;5016925;28;20033;-76
2023/10/13 16:08:11;;;;;;;0.90;0.60;;;19.40;76.00;;;;;;5011394;28;20030;-77
2023/10/13 16:10:39;;;;;;;2.60;0.70;;;19.30;75.80;;;;;;5021031;28;20025;-77
2023/10/13 16:13:09;;;;;;;1.88;0.98;;;19.20;75.70;;;;;;5019961;28;20033;-75
2023/10/13 16:15:42;;;;;;;2.28;0.82;;;19.20;75.80;;;;;;5013886;28;20047;-76
2023/10/13 16:18:09;;;;;;;1.38;1.05;;;19.10;75.60;;;;;;5017235;28;20037;-75
2023/10/13 16:20:36;;;;;;;4.65;1.17;;;19.00;75.40;;;;;;5019172;28;20068;-76
2023/10/13 16:23:02;;;;;;;64.22;37.22;;;18.90;75.10;;;;;;5014882;28;20583;-75